Herculaneum, MO

3:11 PM CST on December 26, 2014 (GMT -0600)
Farmington Regional | Change Station
CLOSE
Current Station
Airport
Location: Farmington,
Elevation: 945 ft
Nearby Weather Stations

Elev 945 ft 37.76 °N, 90.43 °W | Updated 16 minutes ago

Partly Cloudy
Partly Cloudy
55 °F
Feels Like 55 °F
N
17
Wind Variable Wind from SSE
Gusts 24 mph

Today
High -- | Low -- °F
--% Chance of Precip.
Yesterday
High -- | Low -- °F
Precip. -- in
7:16 AM 4:47 PM
Waxing Crescent, 29% visible
Pressure 30.07 in
Visibility 10.0 miles
Clouds Few 2900 ft
Dew Point 43 °F
Humidity 63%
Rainfall 0.00 in
Snow Depth Not available.
UV 1 out of 12
Pollen 4.60 out of 12
Air Quality Not available.
Flu Activity Not available.
METAR KFAM 262055Z AUTO 16015G21KT 10SM FEW029 13/06 A3007 RMK AO1 57007

More Conditions Fewer Conditions

Pressure 30.07 in
Visibility 10.0 miles
Clouds Few 2900 ft
Dew Point 43 °F
Humidity 63%
Rainfall 0.00 in
Snow Depth Not available.
UV 1 out of 12
Pollen 4.60 out of 12
Air Quality Not available.
Flu Activity Not available.
METAR KFAM 262055Z AUTO 16015G21KT 10SM FEW029 13/06 A3007 RMK AO1 57007

More Conditions Fewer Conditions

10-Day Weather Forecast

Almanac

Astronomy

Dec. 26, 2014 Rise Set
Actual Time
Civil Twilight
Nautical Twilight
Astronomical Twilight
Moon
Length of Visible Light
Length of Day
Tomorrow will be .
, % of the Moon is Illuminated

Today's Extremes

State Highs State Lows

Community

WunderPhotos

Upload Photos

1,780,716 photos uploaded!

WunderBlogs® & News

Nearby

Air Quality

  Air Quality AQ Index Pollutant
Not available.

Snow Depth

Station Depth Elevation

Earthquake Activity

City Distance Mag. Time & Date
Minimum magnitude displayed is 2.5.

Coastal Water Temperatures

Place Temperature

Nearby Weather Stations